createdAt,value
2023-04-16T00:00:09.865Z,14.49
2023-04-16T00:05:09.654Z,14.46
2023-04-16T00:10:03.196Z,13.96
2023-04-16T00:14:56.463Z,13.75
2023-04-16T00:19:50.971Z,14.58
2023-04-16T00:24:44.195Z,14.27
2023-04-16T00:29:37.348Z,14.14
2023-04-16T00:34:30.731Z,14.45
2023-04-16T00:39:25.260Z,14.40
2023-04-16T00:44:18.502Z,14.20
2023-04-16T00:49:11.828Z,14.16
2023-04-16T00:54:07.982Z,14.06
2023-04-16T00:59:02.866Z,12.64
2023-04-16T01:03:56.497Z,13.77
2023-04-16T01:08:51.884Z,13.73
2023-04-16T01:13:45.042Z,13.86
2023-04-16T01:18:40.228Z,13.94
2023-04-16T01:23:37.089Z,13.90
2023-04-16T01:28:30.491Z,13.64
2023-04-16T01:33:23.638Z,13.74
2023-04-16T01:38:18.806Z,13.61
2023-04-16T01:43:13.356Z,13.63
2023-04-16T01:48:07.095Z,13.85
2023-04-16T01:53:02.125Z,13.78
2023-04-16T01:57:55.694Z,13.34
2023-04-16T02:02:54.407Z,13.67
2023-04-16T02:07:52.512Z,13.65
2023-04-16T02:12:45.714Z,13.52
2023-04-16T02:17:40.320Z,13.30
2023-04-16T02:22:37.220Z,13.39
2023-04-16T02:27:30.988Z,13.20
2023-04-16T02:32:36.253Z,12.79
2023-04-16T02:37:30.006Z,12.68
2023-04-16T02:42:24.766Z,12.82
2023-04-16T02:47:18.245Z,12.73
2023-04-16T02:52:11.712Z,12.88
2023-04-16T02:57:06.248Z,12.89
2023-04-16T03:02:03.038Z,13.15
2023-04-16T03:06:56.315Z,13.34
2023-04-16T03:11:49.447Z,13.78
2023-04-16T03:16:42.707Z,14.14
2023-04-16T03:21:37.262Z,14.20
2023-04-16T03:26:30.738Z,14.58
2023-04-16T03:31:25.481Z,14.68
2023-04-16T03:36:19.923Z,14.77
2023-04-16T03:41:15.450Z,14.83
2023-04-16T03:46:11.370Z,14.89
2023-04-16T03:51:04.800Z,14.93
2023-04-16T03:55:59.727Z,14.60
2023-04-16T04:00:57.355Z,14.96
2023-04-16T04:05:51.548Z,15.00
2023-04-16T04:10:56.553Z,14.85
2023-04-16T04:15:53.935Z,15.05
2023-04-16T04:20:49.922Z,14.92
2023-04-16T04:25:46.241Z,14.88
2023-04-16T04:30:40.092Z,15.05
2023-04-16T04:35:33.475Z,14.93
2023-04-16T04:40:28.829Z,14.89
2023-04-16T04:45:25.505Z,15.19
2023-04-16T04:50:20.589Z,15.20
2023-04-16T04:55:15.893Z,15.22
2023-04-16T05:00:11.614Z,15.48
2023-04-16T05:05:15.631Z,15.57
2023-04-16T05:10:10.377Z,15.29
2023-04-16T05:15:05.932Z,15.79
2023-04-16T05:20:01.985Z,15.54
2023-04-16T05:24:55.394Z,16.07
2023-04-16T05:29:48.686Z,16.22
2023-04-16T05:34:41.910Z,16.37
2023-04-16T05:39:36.436Z,16.52
2023-04-16T05:44:29.660Z,16.62
2023-04-16T05:49:22.749Z,16.76
2023-04-16T05:54:16.052Z,16.86
2023-04-16T05:59:10.881Z,16.98
2023-04-16T06:04:04.202Z,17.11
2023-04-16T06:08:57.457Z,16.31
2023-04-16T06:13:50.560Z,17.46
2023-04-16T06:18:45.256Z,17.61
2023-04-16T06:23:38.339Z,17.77
2023-04-16T06:28:31.503Z,17.94
2023-04-16T06:33:24.907Z,17.96
2023-04-16T06:38:20.108Z,18.14
2023-04-16T06:43:13.334Z,18.13
2023-04-16T06:48:06.903Z,18.40
2023-04-16T06:53:00.268Z,18.21
2023-04-16T06:57:54.792Z,18.39
2023-04-16T07:02:48.115Z,18.68
2023-04-16T07:07:42.541Z,18.75
2023-04-16T07:12:35.855Z,18.65
2023-04-16T07:17:32.405Z,18.90
2023-04-16T07:22:25.636Z,19.12
2023-04-16T07:27:18.852Z,19.21
2023-04-16T07:32:13.379Z,19.33
2023-04-16T07:37:09.737Z,19.43
2023-04-16T07:42:02.950Z,19.52
2023-04-16T07:46:56.040Z,19.62
2023-04-16T07:51:49.218Z,19.82
2023-04-16T07:56:43.718Z,20.09
2023-04-16T08:01:36.894Z,20.34
2023-04-16T08:06:30.254Z,20.78
2023-04-16T08:11:23.414Z,21.02
2023-04-16T08:16:18.077Z,21.24
2023-04-16T08:21:11.344Z,21.31
2023-04-16T08:26:04.537Z,21.92
2023-04-16T08:30:59.769Z,22.61
2023-04-16T08:35:54.602Z,23.45
2023-04-16T08:40:49.722Z,24.41
2023-04-16T08:45:46.532Z,24.40
2023-04-16T08:50:42.172Z,25.09
2023-04-16T08:55:41.883Z,24.68
2023-04-16T09:00:39.466Z,25.62
2023-04-16T09:05:34.481Z,25.97
2023-04-16T09:10:28.445Z,26.76
2023-04-16T09:15:23.783Z,26.64
2023-04-16T09:20:17.084Z,26.50
2023-04-16T09:25:13.078Z,26.20
2023-04-16T09:30:21.985Z,26.10
2023-04-16T09:35:16.760Z,25.42
2023-04-16T09:40:10.972Z,25.55
2023-04-16T09:45:06.173Z,25.37
2023-04-16T09:50:00.403Z,24.97
2023-04-16T09:54:55.360Z,24.37
2023-04-16T09:59:48.772Z,24.47
2023-04-16T10:04:50.810Z,24.18
2023-04-16T10:09:46.791Z,23.90
2023-04-16T10:14:42.074Z,24.07
2023-04-16T10:19:36.592Z,23.89
2023-04-16T10:24:31.272Z,24.17
2023-04-16T10:29:26.211Z,24.33
2023-04-16T10:34:22.751Z,24.04
2023-04-16T10:39:24.716Z,23.89
2023-04-16T10:44:23.106Z,23.46
2023-04-16T10:49:21.343Z,23.72
2023-04-16T10:54:26.560Z,23.69
2023-04-16T10:59:21.060Z,23.62
2023-04-16T11:04:45.087Z,23.24
2023-04-16T11:09:53.071Z,22.44
2023-04-16T11:14:50.112Z,22.20
2023-04-16T11:19:44.230Z,22.12
2023-04-16T11:24:42.262Z,21.87
2023-04-16T11:29:37.169Z,21.37
2023-04-16T11:34:30.774Z,20.87
2023-04-16T11:39:24.517Z,20.63
2023-04-16T11:44:22.589Z,20.47
2023-04-16T11:49:17.961Z,20.34
2023-04-16T11:54:14.124Z,19.93
2023-04-16T11:59:15.631Z,19.70
2023-04-16T12:04:10.387Z,19.62
2023-04-16T12:09:27.337Z,19.72
2023-04-16T12:14:20.769Z,19.51
2023-04-16T12:19:14.499Z,19.66
2023-04-16T12:24:09.916Z,19.78
2023-04-16T12:29:20.695Z,20.41
2023-04-16T12:34:15.295Z,21.17
2023-04-16T12:39:10.945Z,21.55
2023-04-16T12:44:06.881Z,22.11
2023-04-16T12:49:01.407Z,22.45
2023-04-16T12:53:56.759Z,22.60
2023-04-16T12:58:52.092Z,22.36
2023-04-16T13:03:45.361Z,22.13
2023-04-16T13:08:40.114Z,22.10
2023-04-16T13:13:33.246Z,22.15
2023-04-16T13:18:27.281Z,22.03
2023-04-16T13:23:20.437Z,22.11
2023-04-16T13:28:14.959Z,22.02
2023-04-16T13:33:11.972Z,21.72
2023-04-16T13:38:06.016Z,21.87
2023-04-16T13:42:59.176Z,21.29
2023-04-16T13:47:53.774Z,21.02
2023-04-16T13:52:46.949Z,20.38
2023-04-16T13:57:40.469Z,20.18
2023-04-16T14:02:34.972Z,20.48
2023-04-16T14:07:29.637Z,21.30
2023-04-16T14:12:23.729Z,22.45
2023-04-16T14:17:16.897Z,23.67
2023-04-16T14:22:09.964Z,24.57
2023-04-16T14:27:04.493Z,24.84
2023-04-16T14:31:57.857Z,23.78
2023-04-16T14:36:52.059Z,22.36
2023-04-16T14:41:45.371Z,21.57
2023-04-16T14:46:41.154Z,21.15
2023-04-16T14:51:35.506Z,21.33
2023-04-16T14:56:28.582Z,20.84
2023-04-16T15:01:21.840Z,20.54
2023-04-16T15:06:17.335Z,20.11
2023-04-16T15:11:10.614Z,19.68
2023-04-16T15:16:04.549Z,19.35
2023-04-16T15:20:57.721Z,19.08
2023-04-16T15:25:52.212Z,18.81
2023-04-16T15:30:45.615Z,18.76
2023-04-16T15:35:41.331Z,18.71
2023-04-16T15:40:34.720Z,18.54
2023-04-16T15:45:29.332Z,18.43
2023-04-16T15:50:22.667Z,18.50
2023-04-16T15:55:16.445Z,18.20
2023-04-16T16:00:15.938Z,18.20
2023-04-16T16:05:15.222Z,17.85
2023-04-16T16:10:09.893Z,17.81
2023-04-16T16:15:03.430Z,17.55
2023-04-16T16:19:57.834Z,17.45
2023-04-16T16:24:53.250Z,17.32
2023-04-16T16:29:46.475Z,16.76
2023-04-16T16:34:40.281Z,17.04
2023-04-16T16:39:33.992Z,16.86
2023-04-16T16:44:29.044Z,16.98
2023-04-16T16:49:22.294Z,17.00
2023-04-16T16:54:16.355Z,16.28
2023-04-16T16:59:10.219Z,16.92
2023-04-16T17:04:05.436Z,16.88
2023-04-16T17:08:58.604Z,16.83
2023-04-16T17:13:51.750Z,16.58
2023-04-16T17:18:44.945Z,16.43
2023-04-16T17:23:41.107Z,16.39
2023-04-16T17:28:37.277Z,16.17
2023-04-16T17:33:30.571Z,16.38
2023-04-16T17:38:23.710Z,16.33
2023-04-16T17:43:18.285Z,15.55
2023-04-16T17:48:12.660Z,16.27
2023-04-16T17:53:06.155Z,16.07
2023-04-16T17:58:02.321Z,16.23
2023-04-16T18:02:58.555Z,16.24
2023-04-16T18:07:51.879Z,16.24
2023-04-16T18:12:45.176Z,16.23
2023-04-16T18:17:42.423Z,15.77
2023-04-16T18:22:37.494Z,16.04
2023-04-16T18:27:33.669Z,15.97
2023-04-16T18:32:30.883Z,15.59
2023-04-16T18:37:31.958Z,15.76
2023-04-16T18:42:29.437Z,16.02
2023-04-16T18:47:23.015Z,15.58
2023-04-16T18:52:19.890Z,15.93
2023-04-16T18:57:13.252Z,15.28
2023-04-16T19:02:09.074Z,15.83
2023-04-16T19:07:10.819Z,15.80
2023-04-16T19:12:04.971Z,15.67
2023-04-16T19:17:08.284Z,15.33
2023-04-16T19:22:10.832Z,14.43
2023-04-16T19:27:04.347Z,15.45
2023-04-16T19:31:59.971Z,14.74
2023-04-16T19:36:53.608Z,15.24
2023-04-16T19:41:48.403Z,14.05
2023-04-16T19:46:41.695Z,14.41
2023-04-16T19:51:34.876Z,14.96
2023-04-16T19:56:28.130Z,13.87
2023-04-16T20:01:23.467Z,14.74
2023-04-16T20:06:18.720Z,13.93
2023-04-16T20:11:22.664Z,14.41
2023-04-16T20:16:16.102Z,14.40
2023-04-16T20:21:11.296Z,13.62
2023-04-16T20:26:17.238Z,14.15
2023-04-16T20:31:14.245Z,13.36
2023-04-16T20:36:13.948Z,13.99
2023-04-16T20:41:12.338Z,13.71
2023-04-16T20:46:06.296Z,13.87
2023-04-16T20:51:00.985Z,13.39
2023-04-16T20:55:57.404Z,13.77
2023-04-16T21:00:53.445Z,12.49
2023-04-16T21:05:50.492Z,13.49
2023-04-16T21:10:44.077Z,13.57
2023-04-16T21:15:38.975Z,13.10
2023-04-16T21:20:32.376Z,13.57
2023-04-16T21:25:25.901Z,12.39
2023-04-16T21:30:26.822Z,13.46
2023-04-16T21:35:27.053Z,12.86
2023-04-16T21:40:20.147Z,13.43
2023-04-16T21:45:14.644Z,12.95
2023-04-16T21:50:09.032Z,13.06
2023-04-16T21:55:05.094Z,12.98
2023-04-16T21:59:58.379Z,13.21
2023-04-16T22:04:51.662Z,12.14
2023-04-16T22:09:47.811Z,12.48
2023-04-16T22:14:52.135Z,13.04
2023-04-16T22:19:55.298Z,12.88
2023-04-16T22:24:48.566Z,11.92
2023-04-16T22:29:43.343Z,12.90
2023-04-16T22:34:36.647Z,13.09
2023-04-16T22:39:32.534Z,13.07
2023-04-16T22:44:26.856Z,13.06
2023-04-16T22:49:21.660Z,12.28
2023-04-16T22:54:15.010Z,11.94
2023-04-16T22:59:09.137Z,13.03
2023-04-16T23:04:02.613Z,13.03
2023-04-16T23:08:57.221Z,13.03
2023-04-16T23:13:50.486Z,12.86
2023-04-16T23:18:43.649Z,13.01
2023-04-16T23:23:39.552Z,12.39
2023-04-16T23:28:37.296Z,12.86
2023-04-16T23:33:31.631Z,13.01
2023-04-16T23:38:25.212Z,13.03
2023-04-16T23:43:18.438Z,13.02
2023-04-16T23:48:17.644Z,12.88
2023-04-16T23:53:13.119Z,12.27
2023-04-16T23:58:06.475Z,12.97
